Time;durP1;ratioP1;P1;durP2;ratioP2;P2;SDS_P1;SDS_P2;PMS_P1;PMS_P2;Temp;Humidity;BMP_temperature;BMP_pressure;BME280_temperature;BME280_humidity;BME280_pressure;Samples;Min_cycle;Max_cycle;Signal;HPM_P1;HPM_P2
2021/06/15 00:01:54;;;;;;;3.50;1.48;;;;;;;17.85;57.67;100590.13;5075386;28;20027;-61
2021/06/15 00:04:19;;;;;;;5.43;1.73;;;;;;;17.82;58.06;100579.63;5096949;28;20012;-62
2021/06/15 00:06:45;;;;;;;3.05;1.60;;;;;;;17.81;58.08;100588.63;5096818;28;20034;-61
2021/06/15 00:09:10;;;;;;;4.25;1.77;;;;;;;17.79;57.81;100585.41;5096897;28;20016;-61
2021/06/15 00:11:36;;;;;;;2.95;1.65;;;;;;;17.80;57.84;100576.41;5096791;28;20028;-61
2021/06/15 00:14:01;;;;;;;4.03;2.40;;;;;;;17.79;57.97;100585.41;5082321;28;20028;-61
2021/06/15 00:16:27;;;;;;;5.95;2.00;;;;;;;17.78;57.78;100578.91;5090340;28;20023;-61
2021/06/15 00:18:52;;;;;;;2.78;1.65;;;;;;;17.75;57.86;100579.81;5096114;28;20380;-61
2021/06/15 00:21:18;;;;;;;4.40;1.60;;;;;;;17.75;58.03;100590.38;5096836;28;20028;-61
2021/06/15 00:23:43;;;;;;;1.67;1.40;;;;;;;17.74;58.13;100577.41;5078714;28;20032;-61
2021/06/15 00:26:08;;;;;;;5.80;1.83;;;;;;;17.72;57.87;100577.88;5082343;28;20054;-61
2021/06/15 00:28:36;;;;;;;2.22;1.40;;;;;;;17.69;57.98;100575.13;5096555;28;20047;-62
2021/06/15 00:31:01;;;;;;;2.55;1.40;;;;;;;17.67;58.02;100571.91;5096459;28;20396;-62
2021/06/15 00:33:27;;;;;;;5.90;2.05;;;;;;;17.66;58.32;100576.78;5096119;28;20107;-61
2021/06/15 00:35:52;;;;;;;5.60;1.45;;;;;;;17.65;58.26;100574.41;5078387;28;20020;-62
2021/06/15 00:38:17;;;;;;;4.82;1.60;;;;;;;17.65;58.53;100577.25;5096427;28;20020;-61
2021/06/15 00:40:43;;;;;;;1.92;1.67;;;;;;;17.61;58.51;100578.13;5096170;28;20114;-61
2021/06/15 00:43:09;;;;;;;3.22;1.70;;;;;;;17.58;58.69;100564.81;5096607;28;20362;-61
2021/06/15 00:45:34;;;;;;;2.88;1.80;;;;;;;17.57;58.76;100563.22;5096395;28;20077;-62
2021/06/15 00:48:00;;;;;;;4.75;1.63;;;;;;;17.55;58.45;100559.22;5078063;28;20017;-62
2021/06/15 00:50:28;;;;;;;6.57;1.48;;;;;;;17.56;58.41;100563.69;5095855;28;20092;-61
2021/06/15 00:52:54;;;;;;;3.67;1.88;;;;;;;17.57;58.56;100566.06;5096062;28;20032;-61
2021/06/15 00:55:21;;;;;;;3.83;1.48;;;;;;;17.56;58.32;100560.84;5096134;28;20020;-61
2021/06/15 00:57:47;;;;;;;3.60;1.52;;;;;;;17.54;58.18;100555.59;5095797;28;20026;-62
2021/06/15 01:00:12;;;;;;;2.25;1.50;;;;;;;17.53;58.15;100556.84;5095528;28;20031;-61
2021/06/15 01:02:38;;;;;;;4.72;1.58;;;;;;;17.53;58.20;100562.53;5085463;28;20058;-66
2021/06/15 01:05:06;;;;;;;3.08;1.58;;;;;;;17.50;58.62;100566.22;5095720;28;20111;-66
2021/06/15 01:07:46;;;;;;;7.50;1.55;;;;;;;17.49;58.74;100566.69;5095900;28;20077;-65
2021/06/15 01:10:40;;;;;;;3.70;1.65;;;;;;;17.45;58.57;100565.97;5095648;28;20024;-64
2021/06/15 01:13:18;;;;;;;9.23;2.13;;;;;;;17.46;58.80;100567.56;5095960;28;20020;-64
2021/06/15 01:15:59;;;;;;;4.95;1.50;;;;;;;17.46;58.65;100564.72;5095619;28;20026;-63
2021/06/15 01:18:25;;;;;;;;;;;;;;;17.46;58.19;100565.53;5096100;28;20077;-64
2021/06/15 01:20:56;;;;;;;5.55;1.77;;;;;;;17.44;58.60;100558.69;5095597;28;19912;-65
2021/06/15 01:23:40;;;;;;;7.53;1.88;;;;;;;17.41;58.49;100560.41;5095739;28;20036;-64
2021/06/15 01:26:30;;;;;;;4.97;1.75;;;;;;;17.39;58.34;100565.72;5095446;28;20020;-64
2021/06/15 01:29:26;;;;;;;4.63;1.60;;;;;;;17.41;58.21;100559.59;5095536;28;20027;-64
2021/06/15 01:31:55;;;;;;;3.95;1.88;;;;;;;17.40;58.10;100560.84;5095621;28;20028;-64
2021/06/15 01:34:32;;;;;;;4.75;1.75;;;;;;;17.34;58.30;100563.44;5095430;28;20039;-64
2021/06/15 01:37:21;;;;;;;4.03;2.08;;;;;;;17.29;58.70;100556.25;5095580;28;20481;-64
2021/06/15 01:39:53;;;;;;;3.28;1.48;;;;;;;17.25;58.79;100551.88;5095408;28;20036;-64
2021/06/15 01:42:26;;;;;;;2.92;1.70;;;;;;;17.21;59.11;100563.34;5095604;28;20019;-64
2021/06/15 01:44:58;;;;;;;2.92;1.65;;;;;;;17.16;59.32;100560.22;5095398;28;20070;-64
2021/06/15 01:47:27;;;;;;;4.78;1.80;;;;;;;17.11;59.32;100557.94;5095564;28;20378;-65
2021/06/15 01:49:55;;;;;;;4.90;1.65;;;;;;;17.04;59.63;100553.22;5077379;28;20044;-65
2021/06/15 01:52:24;;;;;;;6.40;2.17;;;;;;;16.99;59.73;100553.78;5079947;28;20021;-62
2021/06/15 01:54:50;;;;;;;7.88;1.88;;;;;;;16.95;59.77;100558.72;5091079;28;20028;-62
2021/06/15 01:57:20;;;;;;;3.53;1.85;;;;;;;16.93;59.95;100544.97;5095425;28;20066;-62
2021/06/15 01:59:48;;;;;;;3.15;1.55;;;;;;;16.91;60.22;100555.16;5094993;28;20032;-66
2021/06/15 02:02:14;;;;;;;2.95;1.80;;;;;;;16.88;60.20;100561.72;5084391;28;20450;-65
2021/06/15 02:04:43;;;;;;;3.63;1.75;;;;;;;16.81;60.54;100562.69;5095222;28;20104;-64
2021/06/15 02:07:13;;;;;;;2.17;1.50;;;;;;;16.72;61.16;100554.00;5095219;28;20019;-64
2021/06/15 02:09:43;;;;;;;2.17;1.58;;;;;;;16.69;60.98;100567.00;5095395;28;20112;-64
2021/06/15 02:12:09;;;;;;;3.83;2.03;;;;;;;16.64;60.72;100555.34;5095364;28;20424;-64
2021/06/15 02:14:35;;;;;;;5.60;2.45;;;;;;;16.63;60.83;100551.72;5092581;28;20072;-63
2021/06/15 02:17:02;;;;;;;4.18;1.60;;;;;;;16.65;60.38;100549.25;5096562;28;20085;-64
2021/06/15 02:19:31;;;;;;;2.53;1.75;;;;;;;16.65;60.51;100554.91;5077267;28;20042;-66
2021/06/15 02:22:07;;;;;;;4.97;1.50;;;;;;;16.63;60.66;100556.59;5086729;28;20032;-64
2021/06/15 02:24:38;;;;;;;3.35;1.73;;;;;;;16.53;60.88;100549.13;5093980;28;20036;-66
2021/06/15 02:27:05;;;;;;;;;;;;;;;16.43;60.92;100558.66;5065216;28;20354;-64
2021/06/15 02:29:30;;;;;;;2.88;1.77;;;;;;;16.33;61.33;100547.13;5074559;28;19908;-63
2021/06/15 02:31:59;;;;;;;2.58;1.63;;;;;;;16.25;61.34;100557.03;5098090;28;20035;-64
2021/06/15 02:34:28;;;;;;;6.63;1.67;;;;;;;16.18;61.47;100548.69;5079618;28;20077;-64
2021/06/15 02:36:55;;;;;;;5.30;1.75;;;;;;;16.16;61.13;100556.00;5098661;28;20024;-64
2021/06/15 02:39:26;;;;;;;4.20;1.75;;;;;;;16.13;61.65;100551.22;5098712;28;20052;-63
2021/06/15 02:41:53;;;;;;;5.07;1.77;;;;;;;16.09;62.17;100562.63;5084221;28;20100;-64
2021/06/15 02:44:23;;;;;;;5.20;2.25;;;;;;;16.02;62.15;100568.47;5098469;28;20656;-64
2021/06/15 02:46:50;;;;;;;7.78;1.80;;;;;;;15.95;62.41;100558.06;5096682;28;20032;-63
2021/06/15 02:49:21;;;;;;;3.10;1.67;;;;;;;15.88;62.41;100568.72;5098172;28;20499;-63
2021/06/15 02:52:16;;;;;;;4.45;1.77;;;;;;;15.80;63.22;100564.44;5098513;28;20438;-63
2021/06/15 02:54:44;;;;;;;6.85;2.05;;;;;;;15.75;62.94;100565.75;5098249;28;20028;-63
2021/06/15 02:57:11;;;;;;;4.15;2.00;;;;;;;15.71;62.67;100571.50;5091320;28;20095;-63
2021/06/15 02:59:37;;;;;;;5.32;1.70;;;;;;;15.69;62.75;100568.28;5084208;28;20031;-65
2021/06/15 03:02:02;;;;;;;7.88;1.90;;;;;;;15.69;62.65;100576.78;5098517;28;20036;-64
2021/06/15 03:04:28;;;;;;;4.15;1.80;;;;;;;15.67;62.64;100572.78;5097926;28;20028;-64
2021/06/15 03:06:53;;;;;;;5.57;1.95;;;;;;;15.65;62.54;100572.44;5098249;28;20028;-64
2021/06/15 03:09:19;;;;;;;8.13;2.20;;;;;;;15.63;62.88;100567.19;5098142;28;20043;-64
2021/06/15 03:11:49;;;;;;;5.22;1.63;;;;;;;15.62;62.69;100571.25;5097775;28;20316;-64
2021/06/15 03:14:20;;;;;;;8.68;2.08;;;;;;;15.61;63.31;100572.50;5098247;28;20095;-64
2021/06/15 03:16:47;;;;;;;4.90;1.93;;;;;;;15.60;63.43;100568.03;5097665;28;20020;-64
2021/06/15 03:19:25;;;;;;;5.68;1.90;;;;;;;15.56;63.52;100575.78;5097840;28;20077;-64
2021/06/15 03:22:18;;;;;;;3.13;1.73;;;;;;;15.52;63.40;100575.03;5084678;28;20375;-63
2021/06/15 03:24:50;;;;;;;4.68;1.65;;;;;;;15.46;64.09;100571.13;5096122;28;20039;-64
2021/06/15 03:27:28;;;;;;;9.00;2.88;;;;;;;15.45;63.98;100572.34;5097145;28;20024;-64
2021/06/15 03:29:54;;;;;;;4.80;2.08;;;;;;;15.45;64.04;100570.31;5097561;28;20412;-64
2021/06/15 03:32:21;;;;;;;3.00;2.20;;;;;;;15.48;64.24;100567.84;5097500;28;20032;-64
2021/06/15 03:34:51;;;;;;;3.90;1.85;;;;;;;15.52;63.83;100569.38;5097429;28;20407;-64
2021/06/15 03:37:24;;;;;;;3.30;2.10;;;;;;;15.54;63.81;100578.25;5079799;28;20024;-64
2021/06/15 03:39:50;;;;;;;6.38;1.83;;;;;;;15.55;63.99;100567.72;5097086;28;20123;-64
2021/06/15 03:42:20;;;;;;;6.97;1.88;;;;;;;15.56;64.12;100570.09;5088106;28;20043;-64
2021/06/15 03:44:57;;;;;;;4.32;2.03;;;;;;;15.57;63.98;100576.56;5084642;28;20412;-64
2021/06/15 03:47:23;;;;;;;6.68;2.55;;;;;;;15.59;63.75;100569.25;5079513;28;20024;-64
2021/06/15 03:49:54;;;;;;;5.65;2.15;;;;;;;15.62;63.88;100568.44;5085342;28;20058;-63
2021/06/15 03:52:22;;;;;;;11.05;2.78;;;;;;;15.68;63.61;100578.03;5064632;28;20119;-63
2021/06/15 03:54:48;;;;;;;5.63;2.10;;;;;;;15.75;63.17;100572.22;5079178;28;20412;-63
2021/06/15 03:57:15;;;;;;;3.30;1.80;;;;;;;15.80;63.50;100572.94;5081478;28;20103;-64
2021/06/15 03:59:42;;;;;;;3.72;2.17;;;;;;;15.86;63.06;100576.88;5081151;28;20087;-63
2021/06/15 04:02:08;;;;;;;9.65;2.58;;;;;;;15.92;63.64;100580.81;5081799;28;20048;-64
2021/06/15 04:04:40;;;;;;;3.75;2.20;;;;;;;15.98;63.66;100573.41;5079541;28;20052;-63
2021/06/15 04:07:07;;;;;;;6.13;1.85;;;;;;;16.02;63.49;100574.94;5079610;28;20410;-63
2021/06/15 04:09:36;;;;;;;5.25;1.88;;;;;;;16.10;63.16;100574.78;5080197;28;20316;-63
2021/06/15 04:12:02;;;;;;;7.15;1.98;;;;;;;16.18;62.77;100577.03;5079106;28;20054;-63
2021/06/15 04:14:28;;;;;;;5.20;2.17;;;;;;;16.25;62.75;100585.41;5079108;28;20024;-62
2021/06/15 04:16:56;;;;;;;3.83;2.03;;;;;;;16.32;62.88;100571.06;5058612;28;20417;-63
2021/06/15 04:19:26;;;;;;;2.85;1.70;;;;;;;16.42;62.74;100579.75;5080902;28;20063;-65
2021/06/15 04:21:53;;;;;;;7.22;1.85;;;;;;;16.52;62.51;100575.91;5078603;28;20316;-64
2021/06/15 04:24:23;;;;;;;4.63;2.00;;;;;;;16.61;62.32;100578.94;5090835;28;20089;-65
2021/06/15 04:26:50;;;;;;;5.80;2.13;;;;;;;16.72;62.62;100587.25;5082818;28;20028;-63
2021/06/15 04:29:16;;;;;;;3.53;2.25;;;;;;;16.85;62.26;100591.81;5084813;28;20404;-64
2021/06/15 04:31:43;;;;;;;3.95;1.98;;;;;;;16.95;62.46;100589.94;5077309;28;20023;-64
2021/06/15 04:34:12;;;;;;;7.43;2.65;;;;;;;17.02;62.03;100589.00;5085059;28;20094;-64
2021/06/15 04:36:39;;;;;;;8.65;2.75;;;;;;;17.09;61.81;100594.50;5084433;28;20024;-64
2021/06/15 04:39:15;;;;;;;5.30;2.60;;;;;;;17.19;61.36;100587.75;5088787;28;20043;-63
2021/06/15 04:41:53;;;;;;;6.65;3.45;;;;;;;17.28;61.34;100585.91;5086156;28;20028;-63
2021/06/15 04:44:26;;;;;;;9.30;3.53;;;;;;;17.36;61.23;100592.19;5084496;28;20036;-63
2021/06/15 04:46:57;;;;;;;7.10;3.55;;;;;;;17.45;61.37;100585.88;5082637;28;20055;-63
2021/06/15 04:49:28;;;;;;;10.10;4.63;;;;;;;17.52;60.47;100597.03;5089570;28;20048;-62
2021/06/15 04:51:57;;;;;;;10.77;3.75;;;;;;;17.59;61.05;100589.16;5086884;28;20035;-64
2021/06/15 04:54:27;;;;;;;14.00;4.60;;;;;;;17.69;60.24;100592.19;5085820;28;20107;-63
2021/06/15 04:56:54;;;;;;;9.38;3.75;;;;;;;17.78;60.04;100600.84;5085073;28;20025;-63
2021/06/15 04:59:21;;;;;;;6.65;3.10;;;;;;;17.85;59.17;100604.34;5088699;28;20039;-62
2021/06/15 05:01:48;;;;;;;10.40;3.70;;;;;;;17.91;59.88;100594.00;5090735;28;20423;-66
2021/06/15 05:04:13;;;;;;;5.32;2.70;;;;;;;17.99;59.46;100600.28;5091151;28;20430;-62
2021/06/15 05:06:43;;;;;;;8.52;2.70;;;;;;;18.06;59.18;100600.06;5079962;28;20032;-62
2021/06/15 05:09:10;;;;;;;7.78;3.40;;;;;;;18.15;59.25;100602.28;5077431;28;20130;-63
2021/06/15 05:11:37;;;;;;;12.35;3.00;;;;;;;18.23;58.85;100609.38;5076709;28;20058;-62
2021/06/15 05:14:05;;;;;;;14.63;2.97;;;;;;;18.32;59.02;100605.84;5077560;28;20029;-62
2021/06/15 05:16:36;;;;;;;11.65;2.88;;;;;;;18.42;59.47;100601.91;5076558;28;20021;-62
2021/06/15 05:19:02;;;;;;;;;;;;;;;18.51;59.43;100605.69;5078021;28;20074;-63
2021/06/15 05:21:34;;;;;;;6.00;2.67;;;;;;;18.60;58.69;100605.00;5076613;28;19916;-63
2021/06/15 05:24:04;;;;;;;;;;;;;;;18.69;58.09;100602.34;5068240;28;20330;-63
2021/06/15 05:26:31;;;;;;;7.65;2.28;;;;;;;18.76;58.38;100609.84;5094763;28;19961;-64
2021/06/15 05:28:56;;;;;;;7.53;2.60;;;;;;;18.86;58.34;100614.41;5093887;28;20024;-64
2021/06/15 05:31:21;;;;;;;5.38;2.70;;;;;;;18.95;58.14;100610.91;5093890;28;20020;-63
2021/06/15 05:33:47;;;;;;;8.15;3.20;;;;;;;19.03;57.31;100618.75;5094894;28;20315;-64
2021/06/15 05:36:12;;;;;;;8.40;3.25;;;;;;;19.13;56.72;100625.34;5094709;28;20020;-64
2021/06/15 05:38:38;;;;;;;9.73;2.63;;;;;;;19.19;56.21;100617.84;5094697;28;20022;-64
2021/06/15 05:41:03;;;;;;;7.72;2.20;;;;;;;19.29;55.78;100613.84;5095354;28;20073;-63
2021/06/15 05:43:29;;;;;;;4.88;2.65;;;;;;;19.35;55.64;100620.56;5095478;28;20091;-63
2021/06/15 05:45:54;;;;;;;11.25;2.60;;;;;;;19.44;55.67;100629.19;5095449;28;20028;-63
2021/06/15 05:48:19;;;;;;;7.18;3.08;;;;;;;19.53;57.16;100620.00;5099031;28;20090;-64
2021/06/15 05:50:46;;;;;;;5.13;2.88;;;;;;;19.64;57.61;100631.81;5099760;28;20027;-64
2021/06/15 05:53:12;;;;;;;11.25;2.88;;;;;;;19.75;56.46;100634.31;5099679;28;20411;-63
2021/06/15 05:55:37;;;;;;;7.43;2.38;;;;;;;19.85;55.31;100636.00;5099245;28;20064;-63
2021/06/15 05:58:02;;;;;;;8.18;2.20;;;;;;;19.95;55.38;100634.03;5099522;28;20463;-63
2021/06/15 06:00:28;;;;;;;8.90;2.58;;;;;;;20.02;54.43;100628.88;5099432;28;20123;-63
2021/06/15 06:02:53;;;;;;;6.18;2.05;;;;;;;20.09;54.82;100627.81;5099516;28;20024;-63
2021/06/15 06:10:28;;;;;;;6.90;2.05;;;;;;;20.42;52.78;100631.13;5099489;28;20063;-63
2021/06/15 06:12:54;;;;;;;5.57;1.85;;;;;;;20.52;53.43;100635.59;5099530;28;20047;-63
2021/06/15 06:15:19;;;;;;;7.55;2.28;;;;;;;20.64;53.34;100629.03;5099280;28;20437;-63
2021/06/15 06:17:45;;;;;;;6.55;2.22;;;;;;;20.76;51.69;100637.97;5098714;28;20020;-63
2021/06/15 06:20:13;;;;;;;7.88;2.05;;;;;;;20.85;50.43;100633.13;5098988;28;20028;-63
2021/06/15 06:22:39;;;;;;;7.15;2.50;;;;;;;20.97;49.00;100640.00;5099050;28;20126;-63
2021/06/15 06:25:08;;;;;;;10.70;2.25;;;;;;;21.06;49.67;100642.91;5098875;28;20043;-63
2021/06/15 06:27:34;;;;;;;4.32;2.58;;;;;;;21.11;49.64;100636.59;5099153;28;20024;-63
2021/06/15 06:29:59;;;;;;;7.50;2.40;;;;;;;21.19;49.47;100635.03;5098828;28;20023;-63
2021/06/15 06:32:25;;;;;;;8.07;1.95;;;;;;;21.28;48.80;100632.22;5098830;28;20020;-63
2021/06/15 06:34:50;;;;;;;6.78;2.38;;;;;;;21.41;49.33;100625.63;5098475;28;20034;-63
2021/06/15 06:37:15;;;;;;;4.72;1.85;;;;;;;21.50;48.32;100619.91;5098868;28;20028;-64
2021/06/15 06:39:42;;;;;;;11.10;2.08;;;;;;;21.58;48.32;100627.72;5098526;28;20024;-63
2021/06/15 06:42:08;;;;;;;4.80;1.60;;;;;;;21.68;47.05;100624.88;5098837;28;20410;-63
2021/06/15 06:44:33;;;;;;;5.55;1.98;;;;;;;21.76;47.04;100626.16;5098660;28;20099;-62
2021/06/15 06:46:59;;;;;;;2.67;1.70;;;;;;;21.84;43.67;100622.50;5098401;28;20059;-62
2021/06/15 06:49:24;;;;;;;5.22;1.95;;;;;;;21.88;46.13;100619.47;5098539;28;20048;-63
2021/06/15 06:51:50;;;;;;;4.07;2.35;;;;;;;21.95;44.55;100627.00;5098372;28;20031;-63
2021/06/15 06:54:15;;;;;;;3.63;1.45;;;;;;;22.04;44.62;100618.44;5098480;28;20024;-62
2021/06/15 06:56:40;;;;;;;4.07;1.42;;;;;;;22.09;43.95;100623.50;5098204;28;20030;-63
2021/06/15 06:59:05;;;;;;;2.60;1.45;;;;;;;22.13;43.63;100618.41;5097501;28;20030;-64
2021/06/15 07:01:31;;;;;;;1.80;1.35;;;;;;;22.17;42.12;100616.19;5098280;28;20102;-63
2021/06/15 07:03:56;;;;;;;1.20;1.10;;;;;;;22.21;42.27;100616.84;5098014;28;20032;-63
2021/06/15 07:06:22;;;;;;;2.67;1.88;;;;;;;22.24;42.42;100621.59;5098552;28;20020;-63
2021/06/15 07:08:48;;;;;;;1.98;1.38;;;;;;;22.30;42.31;100618.91;5098017;28;20055;-64
2021/06/15 07:11:14;;;;;;;3.58;1.45;;;;;;;22.37;42.98;100619.34;5098078;28;20020;-63
2021/06/15 07:13:39;;;;;;;1.73;1.10;;;;;;;22.45;42.33;100622.69;5098087;28;20562;-64
2021/06/15 07:16:04;;;;;;;1.85;1.25;;;;;;;22.51;42.41;100623.66;5097926;28;20020;-63
2021/06/15 07:18:31;;;;;;;2.63;1.10;;;;;;;22.57;43.37;100623.78;5097782;28;20024;-63
2021/06/15 07:20:56;;;;;;;4.78;1.40;;;;;;;22.63;43.76;100621.88;5097598;28;20358;-64
2021/06/15 07:23:21;;;;;;;10.98;1.80;;;;;;;22.71;43.24;100623.91;5079849;28;20038;-65
2021/06/15 07:25:47;;;;;;;2.90;1.63;;;;;;;22.75;42.82;100627.41;5097904;28;20439;-63
2021/06/15 07:28:12;;;;;;;7.43;1.50;;;;;;;22.79;42.74;100616.56;5097511;28;20044;-64
2021/06/15 07:30:38;;;;;;;5.60;1.63;;;;;;;22.85;43.38;100613.88;5097749;28;20058;-63
2021/06/15 07:33:03;;;;;;;1.20;1.08;;;;;;;22.90;41.64;100616.09;5097421;28;20028;-64
2021/06/15 07:35:29;;;;;;;3.03;1.30;;;;;;;22.93;42.44;100609.38;5097570;28;20035;-62
2021/06/15 07:37:56;;;;;;;4.53;1.30;;;;;;;22.95;41.36;100612.56;5097498;28;20025;-63
2021/06/15 07:40:24;;;;;;;3.58;1.50;;;;;;;23.00;42.41;100602.50;5097528;28;20028;-63
2021/06/15 07:42:55;;;;;;;5.00;1.85;;;;;;;23.04;41.21;100603.94;5097363;28;20020;-63
2021/06/15 07:45:24;;;;;;;6.72;1.48;;;;;;;23.09;42.57;100600.41;5079505;28;20016;-63
2021/06/15 07:47:50;;;;;;;8.60;2.13;;;;;;;23.14;41.33;100593.22;5079296;28;20028;-63
2021/06/15 07:50:16;;;;;;;4.63;1.70;;;;;;;23.20;40.88;100599.09;5097059;28;20051;-63
2021/06/15 07:52:43;;;;;;;2.97;1.27;;;;;;;23.24;39.85;100599.69;5097329;28;20035;-63
2021/06/15 07:55:10;;;;;;;2.30;1.30;;;;;;;23.27;39.55;100596.66;5097213;28;20404;-64
2021/06/15 07:57:35;;;;;;;2.40;1.27;;;;;;;23.33;40.15;100606.19;5096968;28;20027;-63
2021/06/15 08:00:01;;;;;;;2.10;1.10;;;;;;;23.39;41.48;100600.59;5097347;28;20020;-64
2021/06/15 08:02:28;;;;;;;3.33;1.30;;;;;;;23.46;39.96;100588.75;5096749;28;20354;-64
2021/06/15 08:04:53;;;;;;;5.18;1.30;;;;;;;23.51;39.51;100590.94;5096949;28;20372;-63
2021/06/15 08:07:19;;;;;;;1.98;1.20;;;;;;;23.56;39.96;100589.53;5097003;28;20339;-64
2021/06/15 08:09:44;;;;;;;4.03;0.95;;;;;;;23.64;38.86;100582.91;5096208;28;20035;-63
2021/06/15 08:12:10;;;;;;;1.67;1.08;;;;;;;23.63;38.26;100592.03;5096528;28;20026;-63
2021/06/15 08:14:35;;;;;;;2.50;1.23;;;;;;;23.66;40.12;100585.28;5078785;28;20404;-65
2021/06/15 08:17:01;;;;;;;5.57;1.13;;;;;;;23.70;39.85;100583.81;5078830;28;20024;-63
2021/06/15 08:19:26;;;;;;;5.05;1.63;;;;;;;23.74;39.59;100587.31;5096591;28;20024;-63
2021/06/15 08:21:52;;;;;;;4.25;1.33;;;;;;;23.81;39.53;100588.22;5096539;28;20027;-62
2021/06/15 08:24:17;;;;;;;9.63;1.73;;;;;;;23.86;40.59;100579.72;5096647;28;20038;-63
2021/06/15 08:26:44;;;;;;;1.33;1.10;;;;;;;23.93;39.65;100587.16;5097047;28;20016;-63
2021/06/15 08:29:09;;;;;;;2.72;1.15;;;;;;;24.00;39.18;100576.09;5096591;28;20423;-63
2021/06/15 08:31:34;;;;;;;6.28;1.48;;;;;;;24.07;38.15;100579.84;5096213;28;20035;-62
2021/06/15 08:34:00;;;;;;;8.27;1.70;;;;;;;24.10;38.58;100579.66;5096620;28;20399;-63
2021/06/15 08:36:25;;;;;;;4.82;1.23;;;;;;;24.15;38.97;100576.13;5096377;28;20027;-63
2021/06/15 08:38:51;;;;;;;1.15;0.98;;;;;;;24.22;38.56;100587.22;5096262;28;20121;-63
2021/06/15 08:41:20;;;;;;;4.90;1.60;;;;;;;24.28;38.79;100585.28;5096827;28;20027;-63
2021/06/15 08:43:46;;;;;;;5.97;1.27;;;;;;;24.30;37.59;100576.97;5096147;28;20027;-63
2021/06/15 08:46:13;;;;;;;6.43;1.30;;;;;;;24.25;37.03;100569.00;5096040;28;20024;-64
2021/06/15 08:48:38;;;;;;;4.68;1.23;;;;;;;24.23;37.19;100568.72;5095948;28;20072;-64
2021/06/15 08:51:04;;;;;;;5.30;1.45;;;;;;;24.24;39.13;100573.16;5096341;28;20056;-63
2021/06/15 08:53:34;;;;;;;1.85;1.17;;;;;;;24.31;40.01;100567.06;5095990;28;20423;-63
2021/06/15 08:56:10;;;;;;;2.15;1.20;;;;;;;24.36;38.59;100565.56;5096344;28;20035;-63
2021/06/15 08:58:42;;;;;;;4.63;1.30;;;;;;;24.41;37.62;100564.09;5095722;28;20315;-62
2021/06/15 09:01:10;;;;;;;1.73;1.00;;;;;;;24.40;37.45;100568.28;5095932;28;20024;-63
2021/06/15 09:03:36;;;;;;;4.50;1.30;;;;;;;24.47;37.92;100567.88;5096110;28;20031;-64
2021/06/15 09:06:01;;;;;;;4.85;1.20;;;;;;;24.55;39.11;100564.09;5095692;28;20024;-63
2021/06/15 09:08:26;;;;;;;1.42;0.98;;;;;;;24.71;38.78;100557.06;5096018;28;20027;-64
2021/06/15 09:10:52;;;;;;;6.20;1.20;;;;;;;24.82;38.69;100565.06;5095730;28;20053;-63
2021/06/15 09:13:37;;;;;;;2.17;0.95;;;;;;;24.91;37.29;100559.19;5095854;28;20020;-64
2021/06/15 09:16:18;;;;;;;1.73;1.15;;;;;;;25.02;37.39;100555.75;5095855;28;20047;-63
2021/06/15 09:18:44;;;;;;;2.17;1.00;;;;;;;25.06;37.15;100559.22;5095726;28;20356;-63
2021/06/15 09:21:09;;;;;;;5.25;0.90;;;;;;;25.08;37.24;100554.53;5095544;28;20141;-64
2021/06/15 09:23:37;;;;;;;2.30;1.17;;;;;;;25.16;36.93;100563.53;5095728;28;20047;-65
2021/06/15 09:26:04;;;;;;;4.28;1.00;;;;;;;25.21;36.69;100554.22;5095852;28;20146;-65
2021/06/15 09:28:30;;;;;;;4.95;0.95;;;;;;;25.28;37.00;100553.78;5095886;28;20315;-64
2021/06/15 09:31:09;;;;;;;3.38;0.80;;;;;;;25.29;35.91;100552.50;5095839;28;20020;-64
2021/06/15 09:33:41;;;;;;;2.28;1.05;;;;;;;25.26;36.06;100556.38;5095654;28;20197;-65
2021/06/15 09:36:26;;;;;;;1.45;0.90;;;;;;;25.27;37.67;100549.34;5095893;28;20057;-63
2021/06/15 09:38:55;;;;;;;2.45;1.38;;;;;;;25.30;37.87;100547.53;5095882;28;20058;-64
2021/06/15 09:41:38;;;;;;;0.88;0.65;;;;;;;25.37;36.74;100552.84;5096138;28;20323;-65
2021/06/15 09:44:18;;;;;;;1.58;1.30;;;;;;;25.43;36.24;100560.25;5082459;28;20126;-64
2021/06/15 09:46:55;;;;;;;4.68;1.45;;;;;;;25.51;37.82;100552.03;5095726;28;20311;-65
2021/06/15 09:49:31;;;;;;;3.75;1.17;;;;;;;25.61;36.89;100561.28;5095569;28;20040;-64
2021/06/15 09:52:24;;;;;;;5.03;1.10;;;;;;;25.66;36.62;100549.84;5095686;28;20032;-64
2021/06/15 09:54:55;;;;;;;3.25;1.30;;;;;;;25.72;36.57;100556.50;5095456;28;20019;-65
2021/06/15 09:57:37;;;;;;;2.00;1.10;;;;;;;25.78;36.91;100550.81;5077335;28;20054;-64
2021/06/15 10:00:09;;;;;;;2.70;1.20;;;;;;;25.78;36.04;100540.09;5095933;28;20369;-65
2021/06/15 10:02:45;;;;;;;1.70;0.90;;;;;;;25.83;36.47;100541.47;5095576;28;20028;-65
2021/06/15 10:05:22;;;;;;;4.30;1.35;;;;;;;25.89;36.71;100542.31;5095674;28;20370;-64
2021/06/15 10:07:48;;;;;;;1.92;1.15;;;;;;;25.94;36.19;100540.78;5081759;28;20024;-66
2021/06/15 10:10:17;;;;;;;4.95;0.95;;;;;;;25.99;36.45;100543.72;5095546;28;20069;-64
2021/06/15 10:12:43;;;;;;;3.08;1.08;;;;;;;26.09;36.34;100553.00;5077124;28;20020;-66
2021/06/15 10:15:09;;;;;;;1.85;1.20;;;;;;;26.15;36.02;100548.09;5095752;28;20050;-65
2021/06/15 10:17:35;;;;;;;2.25;1.00;;;;;;;26.20;35.72;100547.34;5095400;28;20107;-65
2021/06/15 10:20:01;;;;;;;3.15;0.88;;;;;;;26.20;35.04;100541.59;5095507;28;20361;-65
2021/06/15 10:22:26;;;;;;;4.82;1.23;;;;;;;26.27;35.89;100551.88;5095503;28;20024;-64
2021/06/15 10:24:51;;;;;;;4.45;1.20;;;;;;;26.26;35.06;100547.41;5095313;28;20016;-66
2021/06/15 10:27:17;;;;;;;1.77;1.17;;;;;;;26.28;34.40;100534.06;5095399;28;20024;-65
2021/06/15 10:29:49;;;;;;;2.85;0.80;;;;;;;26.28;35.43;100527.53;5095204;28;20107;-64
2021/06/15 10:32:18;;;;;;;2.72;1.10;;;;;;;26.28;35.55;100533.28;5095490;28;20293;-64
2021/06/15 10:34:56;;;;;;;2.83;0.95;;;;;;;26.31;35.26;100538.84;5097730;28;20035;-66
2021/06/15 10:37:31;;;;;;;5.45;1.10;;;;;;;26.32;35.06;100526.03;5081254;28;20026;-64
2021/06/15 10:39:56;;;;;;;1.77;0.90;;;;;;;26.34;35.34;100526.34;5098838;28;20122;-62
2021/06/15 10:42:22;;;;;;;2.50;1.35;;;;;;;26.39;36.62;100527.69;5099059;28;20059;-63
2021/06/15 10:45:13;;;;;;;5.70;1.38;;;;;;;26.46;36.47;100522.25;5099157;28;20028;-65
2021/06/15 10:47:40;;;;;;;6.97;1.25;;;;;;;26.59;36.39;100527.59;5098957;28;20374;-66
2021/06/15 10:50:07;;;;;;;2.92;0.98;;;;;;;26.62;34.95;100514.25;5080823;28;20055;-64
2021/06/15 10:53:11;;;;;;;6.28;1.30;;;;;;;26.69;36.11;100516.66;5099036;28;20027;-64
2021/06/15 10:55:52;;;;;;;5.68;1.33;;;;;;;26.72;35.37;100513.53;4996932;28;20029;-67
2021/06/15 10:58:43;;;;;;;1.95;1.10;;;;;;;26.68;34.95;100504.34;4997426;28;20308;-64
2021/06/15 11:01:15;;;;;;;2.78;1.00;;;;;;;26.71;34.10;100516.94;5065831;28;20036;-67
2021/06/15 11:03:54;;;;;;;1.77;1.10;;;;;;;26.68;34.72;100501.47;5098601;28;20350;-65
2021/06/15 11:06:41;;;;;;;1.38;1.10;;;;;;;26.68;35.12;100494.91;5098832;28;20023;-64
2021/06/15 11:09:13;;;;;;;1.50;1.17;;;;;;;26.73;35.57;100503.59;5097628;28;20415;-64
2021/06/15 11:11:38;;;;;;;;;;;;;;;26.77;34.97;100495.50;5098868;28;20107;-65
2021/06/15 11:14:12;;;;;;;3.28;1.08;;;;;;;26.89;35.04;100502.16;5098583;28;19951;-64
2021/06/15 11:16:44;;;;;;;3.60;0.80;;;;;;;26.90;34.48;100492.19;5098544;28;20320;-65
2021/06/15 11:19:12;;;;;;;1.52;0.98;;;;;;;26.96;34.90;100495.09;5098349;28;20032;-65
2021/06/15 11:21:44;;;;;;;2.15;1.00;;;;;;;26.95;34.79;100493.53;5098759;28;20356;-63
2021/06/15 11:24:24;;;;;;;5.60;1.10;;;;;;;26.93;35.50;100484.59;5098195;28;20103;-64
2021/06/15 11:26:52;;;;;;;4.03;1.90;;;;;;;26.86;34.89;100485.09;5098224;28;20314;-64
2021/06/15 11:29:37;;;;;;;3.53;1.40;;;;;;;26.86;35.03;100487.97;5098286;28;20077;-65
2021/06/15 11:32:21;;;;;;;2.25;0.90;;;;;;;26.93;35.34;100475.94;5098521;28;20032;-63
2021/06/15 11:34:53;;;;;;;6.25;1.55;;;;;;;27.02;35.34;100478.66;5098042;28;20014;-64
2021/06/15 11:37:19;;;;;;;;;;;;;;;27.08;34.53;100476.56;5098961;28;20285;-67
2021/06/15 11:39:45;;;;;;;3.05;1.00;;;;;;;27.07;33.35;100466.34;5097755;28;19955;-66
2021/06/15 11:42:21;;;;;;;5.18;1.10;;;;;;;27.08;34.19;100465.81;5097958;28;20101;-63